Time;durP1;ratioP1;P1;durP2;ratioP2;P2;SDS_P1;SDS_P2;PMS_P1;PMS_P2;Temp;Humidity;BMP_temperature;BMP_pressure;BME280_temperature;BME280_humidity;BME280_pressure;Samples;Min_cycle;Max_cycle;Signal;HPM_P1;HPM_P2
2023/08/10 00:01:40;;;;;;;;;;;;;;;;;;6305214;28;19935;-53
2023/08/10 00:04:41;;;;;;;;;;;;;;;;;;6310334;28;20284;-52
2023/08/10 00:07:41;;;;;;;;;;;;;;;;;;6308613;28;19935;-56
2023/08/10 00:10:42;;;;;;;;;;;;;;;;;;6304554;28;19924;-54
2023/08/10 00:13:42;;;;;;;;;;;;;;;;;;6308785;28;19931;-55
2023/08/10 00:16:43;;;;;;;;;;;;;;;;;;6303304;28;20013;-53
2023/08/10 00:19:44;;;;;;;;;;;;;;;;;;6300406;28;19923;-55
2023/08/10 00:22:44;;;;;;;;;;;;;;;;;;6308245;28;20050;-51
2023/08/10 00:25:45;;;;;;;;;;;;;;;;;;6301547;28;20574;-53
2023/08/10 00:28:45;;;;;;;;;;;;;;;;;;6302482;28;20360;-55
2023/08/10 00:31:46;;;;;;;;;;;;;;;;;;6300025;28;19935;-56
2023/08/10 00:34:47;;;;;;;;;;;;;;;;;;6295341;28;20112;-52
2023/08/10 00:37:49;;;;;;;;;;;;;;;;;;6299600;28;20291;-54
2023/08/10 00:40:50;;;;;;;;;;;;;;;;;;6299891;28;20435;-54
2023/08/10 00:43:50;;;;;;;;;;;;;;;;;;6299494;28;19932;-54
2023/08/10 00:46:51;;;;;;;;;;;;;;;;;;6307325;28;19924;-53
2023/08/10 00:49:51;;;;;;;;;;;;;;;;;;6306554;28;19935;-54
2023/08/10 00:52:52;;;;;;;;;;;;;;;;;;6299447;28;19942;-54
2023/08/10 00:55:53;;;;;;;;;;;;;;;;;;6299904;28;19920;-53
2023/08/10 00:58:54;;;;;;;;;;;;;;;;;;6299271;28;19965;-53
2023/08/10 01:01:54;;;;;;;;;;;;;;;;;;6300041;28;20374;-55
2023/08/10 01:04:55;;;;;;;;;;;;;;;;;;6296337;28;19943;-53
2023/08/10 01:08:00;;;;;;;;;;;;;;;;;;6298599;28;19930;-54
2023/08/10 01:11:00;;;;;;;;;;;;;;;;;;6301310;28;20033;-52
2023/08/10 01:14:13;;;;;;;;;;;;;;;;;;6297090;28;20271;-55
2023/08/10 01:17:18;;;;;;;;;;;;;;;;;;6298884;28;19924;-52
2023/08/10 01:20:19;;;;;;;;;;;;;;;;;;6281905;28;19924;-55
2023/08/10 01:23:30;;;;;;;;;;;;;;;;;;6291667;28;19924;-55
2023/08/10 01:26:31;;;;;;;;;;;;;;;;;;6297814;28;19928;-52
2023/08/10 01:29:32;;;;;;;;;;;;;;;;;;6298984;28;20372;-53
2023/08/10 01:32:32;;;;;;;;;;;;;;;;;;6296939;28;19966;-55
2023/08/10 01:35:33;;;;;;;;;;;;;;;;;;6294431;28;19920;-53
2023/08/10 01:38:33;;;;;;;;;;;;;;;;;;6299267;28;19927;-56
2023/08/10 01:41:34;;;;;;;;;;;;;;;;;;6297062;28;19936;-54
2023/08/10 01:44:34;;;;;;;;;;;;;;;;;;6298950;28;19924;-53
2023/08/10 01:47:39;;;;;;;;;;;;;;;;;;6297464;28;19923;-52
2023/08/10 01:50:40;;;;;;;;;;;;;;;;;;6300305;28;20018;-54
2023/08/10 01:53:42;;;;;;;;;;;;;;;;;;6296590;28;20264;-52
2023/08/10 01:56:43;;;;;;;;;;;;;;;;;;6292168;28;20021;-52
2023/08/10 01:59:44;;;;;;;;;;;;;;;;;;6311084;28;19924;-56
2023/08/10 02:02:44;;;;;;;;;;;;;;;;;;6315275;28;19920;-51
2023/08/10 02:05:45;;;;;;;;;;;;;;;;;;6314612;28;20291;-51
2023/08/10 02:08:45;;;;;;;;;;;;;;;;;;6300671;28;19920;-51
2023/08/10 02:11:46;;;;;;;;;;;;;;;;;;6298225;28;19928;-56
2023/08/10 02:14:46;;;;;;;;;;;;;;;;;;6296986;28;19976;-55
2023/08/10 02:17:47;;;;;;;;;;;;;;;;;;6294799;28;19920;-53
2023/08/10 02:20:47;;;;;;;;;;;;;;;;;;6295696;28;19924;-54
2023/08/10 02:23:48;;;;;;;;;;;;;;;;;;6297791;28;20280;-52
2023/08/10 02:26:49;;;;;;;;;;;;;;;;;;6301427;28;19924;-51
2023/08/10 02:29:49;;;;;;;;;;;;;;;;;;6295914;28;19935;-56
2023/08/10 02:32:50;;;;;;;;;;;;;;;;;;6298170;28;20323;-52
2023/08/10 02:35:50;;;;;;;;;;;;;;;;;;6295407;28;19966;-51
2023/08/10 02:38:51;;;;;;;;;;;;;;;;;;6298372;28;20433;-56
2023/08/10 02:41:51;;;;;;;;;;;;;;;;;;6299476;28;20302;-53
2023/08/10 02:44:52;;;;;;;;;;;;;;;;;;6295920;28;19920;-51
2023/08/10 02:47:53;;;;;;;;;;;;;;;;;;6297806;28;20014;-54
2023/08/10 02:50:53;;;;;;;;;;;;;;;;;;6300008;28;19965;-54
2023/08/10 02:53:54;;;;;;;;;;;;;;;;;;6293795;28;20024;-56
2023/08/10 02:56:54;;;;;;;;;;;;;;;;;;6295415;28;19924;-53
2023/08/10 02:59:55;;;;;;;;;;;;;;;;;;6296186;28;19924;-54
2023/08/10 03:02:55;;;;;;;;;;;;;;;;;;6294975;28;19924;-54
2023/08/10 03:05:56;;;;;;;;;;;;;;;;;;6293667;28;19920;-53
2023/08/10 03:08:56;;;;;;;;;;;;;;;;;;6297465;28;19924;-52
2023/08/10 03:11:57;;;;;;;;;;;;;;;;;;6295232;28;19924;-54
2023/08/10 03:14:57;;;;;;;;;;;;;;;;;;6296689;28;19939;-51
2023/08/10 03:17:58;;;;;;;;;;;;;;;;;;6296660;28;19920;-57
2023/08/10 03:20:58;;;;;;;;;;;;;;;;;;6297529;28;19924;-55
2023/08/10 03:23:58;;;;;;;;;;;;;;;;;;6295695;28;19930;-56
2023/08/10 03:26:59;;;;;;;;;;;;;;;;;;6294855;28;19978;-50
2023/08/10 03:30:00;;;;;;;;;;;;;;;;;;6295671;28;19931;-52
2023/08/10 03:33:00;;;;;;;;;;;;;;;;;;6294796;28;20881;-52
2023/08/10 03:36:02;;;;;;;;;;;;;;;;;;6296644;28;19920;-54
2023/08/10 03:39:02;;;;;;;;;;;;;;;;;;6295986;28;20050;-53
2023/08/10 03:42:03;;;;;;;;;;;;;;;;;;6296397;28;20480;-54
2023/08/10 03:45:04;;;;;;;;;;;;;;;;;;6296587;28;19997;-54
2023/08/10 03:48:05;;;;;;;;;;;;;;;;;;6299459;28;19925;-52
2023/08/10 03:51:05;;;;;;;;;;;;;;;;;;6295402;28;19950;-55
2023/08/10 03:54:06;;;;;;;;;;;;;;;;;;6293082;28;19920;-56
2023/08/10 03:57:06;;;;;;;;;;;;;;;;;;6277822;28;19973;-55
2023/08/10 04:00:07;;;;;;;;;;;;;;;;;;6295901;28;19924;-54
2023/08/10 04:03:07;;;;;;;;;;;;;;;;;;6297971;28;19920;-54
2023/08/10 04:06:08;;;;;;;;;;;;;;;;;;6295968;28;19993;-53
2023/08/10 04:09:09;;;;;;;;;;;;;;;;;;6296836;28;19970;-51
2023/08/10 04:12:10;;;;;;;;;;;;;;;;;;6301946;28;19924;-55
2023/08/10 04:15:10;;;;;;;;;;;;;;;;;;6297037;28;19939;-55
2023/08/10 04:18:11;;;;;;;;;;;;;;;;;;6295802;28;19971;-51
2023/08/10 04:21:11;;;;;;;;;;;;;;;;;;6301475;28;20372;-53
2023/08/10 04:24:12;;;;;;;;;;;;;;;;;;6301982;28;19938;-56
2023/08/10 04:27:13;;;;;;;;;;;;;;;;;;6297661;28;19951;-51
2023/08/10 04:30:13;;;;;;;;;;;;;;;;;;6298392;28;20302;-54
2023/08/10 04:33:14;;;;;;;;;;;;;;;;;;6303300;28;19931;-56
2023/08/10 04:36:14;;;;;;;;;;;;;;;;;;6308895;28;19920;-53
2023/08/10 04:39:16;;;;;;;;;;;;;;;;;;6298204;28;20275;-53
2023/08/10 04:42:16;;;;;;;;;;;;;;;;;;6299879;28;19924;-55
2023/08/10 04:45:17;;;;;;;;;;;;;;;;;;6298924;28;19973;-53
2023/08/10 04:48:18;;;;;;;;;;;;;;;;;;6301604;28;20367;-54
2023/08/10 04:51:18;;;;;;;;;;;;;;;;;;6298272;28;19932;-51
2023/08/10 04:54:19;;;;;;;;;;;;;;;;;;6298875;28;19959;-51
2023/08/10 04:57:20;;;;;;;;;;;;;;;;;;6297297;28;19939;-55
2023/08/10 05:00:23;;;;;;;;;;;;;;;;;;6297296;28;19925;-56
2023/08/10 05:03:23;;;;;;;;;;;;;;;;;;6296006;28;20401;-52
2023/08/10 05:06:24;;;;;;;;;;;;;;;;;;6309101;28;19924;-52
2023/08/10 05:09:24;;;;;;;;;;;;;;;;;;6298493;28;19931;-55
2023/08/10 05:12:25;;;;;;;;;;;;;;;;;;6298797;28;19924;-52
2023/08/10 05:15:25;;;;;;;;;;;;;;;;;;6295198;28;19924;-54
2023/08/10 05:18:26;;;;;;;;;;;;;;;;;;6296603;28;19936;-60
2023/08/10 05:21:26;;;;;;;;;;;;;;;;;;6294153;28;19931;-53
2023/08/10 05:24:27;;;;;;;;;;;;;;;;;;6297996;28;19927;-52
2023/08/10 05:27:27;;;;;;;;;;;;;;;;;;6303499;28;19920;-50
2023/08/10 05:30:28;;;;;;;;;;;;;;;;;;6299767;28;19997;-52
2023/08/10 05:33:29;;;;;;;;;;;;;;;;;;6295918;28;19920;-51
2023/08/10 05:36:30;;;;;;;;;;;;;;;;;;6291800;28;19948;-53
2023/08/10 05:39:31;;;;;;;;;;;;;;;;;;6298012;28;20420;-49
2023/08/10 05:42:31;;;;;;;;;;;;;;;;;;6295557;28;19920;-53
2023/08/10 05:45:32;;;;;;;;;;;;;;;;;;6278536;28;20284;-53
2023/08/10 05:48:33;;;;;;;;;;;;;;;;;;6296877;28;19928;-53
2023/08/10 05:51:33;;;;;;;;;;;;;;;;;;6297035;28;19931;-54
2023/08/10 05:54:34;;;;;;;;;;;;;;;;;;6296363;28;19931;-51
2023/08/10 05:57:35;;;;;;;;;;;;;;;;;;6300219;28;19931;-50
2023/08/10 06:00:36;;;;;;;;;;;;;;;;;;6299732;28;20252;-52
2023/08/10 06:03:37;;;;;;;;;;;;;;;;;;6296949;28;20026;-52
2023/08/10 06:06:38;;;;;;;;;;;;;;;;;;6295512;28;19920;-53
2023/08/10 06:09:38;;;;;;;;;;;;;;;;;;6295599;28;19927;-51
2023/08/10 06:12:39;;;;;;;;;;;;;;;;;;6293811;28;19923;-54
2023/08/10 06:15:40;;;;;;;;;;;;;;;;;;6293463;28;19924;-51
2023/08/10 06:18:40;;;;;;;;;;;;;;;;;;6294291;28;20284;-54
2023/08/10 06:21:41;;;;;;;;;;;;;;;;;;6292260;28;19931;-54
2023/08/10 06:24:41;;;;;;;;;;;;;;;;;;6293703;28;20283;-50
2023/08/10 06:27:42;;;;;;;;;;;;;;;;;;6296502;28;19945;-50
2023/08/10 06:30:42;;;;;;;;;;;;;;;;;;6296955;28;19927;-52
2023/08/10 06:33:43;;;;;;;;;;;;;;;;;;6292945;28;19923;-53
2023/08/10 06:36:43;;;;;;;;;;;;;;;;;;6294108;28;19920;-50
2023/08/10 06:39:46;;;;;;;;;;;;;;;;;;6301162;28;19928;-56
2023/08/10 06:42:46;;;;;;;;;;;;;;;;;;6308541;28;20553;-50
2023/08/10 06:45:47;;;;;;;;;;;;;;;;;;6308255;28;19928;-55
2023/08/10 06:48:48;;;;;;;;;;;;;;;;;;6305811;28;19935;-55
2023/08/10 06:51:50;;;;;;;;;;;;;;;;;;6307157;28;19924;-51
2023/08/10 06:54:52;;;;;;;;;;;;;;;;;;6308971;28;19946;-53
2023/08/10 06:57:52;;;;;;;;;;;;;;;;;;6304975;28;19947;-55
2023/08/10 07:00:55;;;;;;;;;;;;;;;;;;6304912;28;19973;-53
2023/08/10 07:03:55;;;;;;;;;;;;;;;;;;6294059;28;19931;-53
2023/08/10 07:06:56;;;;;;;;;;;;;;;;;;6305019;28;20340;-58
2023/08/10 07:09:56;;;;;;;;;;;;;;;;;;6311850;28;19928;-52
2023/08/10 07:12:57;;;;;;;;;;;;;;;;;;6303686;28;19942;-51
2023/08/10 07:15:57;;;;;;;;;;;;;;;;;;6304322;28;19943;-54
2023/08/10 07:18:58;;;;;;;;;;;;;;;;;;6303533;28;19967;-53
2023/08/10 07:21:58;;;;;;;;;;;;;;;;;;6305468;28;20436;-52
2023/08/10 07:25:05;;;;;;;;;;;;;;;;;;6303497;28;20367;-53
2023/08/10 07:28:06;;;;;;;;;;;;;;;;;;6305042;28;19924;-54
2023/08/10 07:31:06;;;;;;;;;;;;;;;;;;6320771;28;20400;-52
2023/08/10 07:34:09;;;;;;;;;;;;;;;;;;6304644;28;19955;-53
2023/08/10 07:37:10;;;;;;;;;;;;;;;;;;6307793;28;19965;-53
2023/08/10 07:40:11;;;;;;;;;;;;;;;;;;6303824;28;19920;-54
2023/08/10 07:43:11;;;;;;;;;;;;;;;;;;6305609;28;19931;-52
2023/08/10 07:46:12;;;;;;;;;;;;;;;;;;6304153;28;19923;-52
2023/08/10 07:49:14;;;;;;;;;;;;;;;;;;6313296;28;19923;-53
2023/08/10 07:52:14;;;;;;;;;;;;;;;;;;6311922;28;19924;-52
2023/08/10 07:55:15;;;;;;;;;;;;;;;;;;6312201;28;19924;-56
2023/08/10 07:58:16;;;;;;;;;;;;;;;;;;6318597;28;19920;-53
2023/08/10 08:01:16;;;;;;;;;;;;;;;;;;6300449;28;20359;-52
2023/08/10 08:04:17;;;;;;;;;;;;;;;;;;6299163;28;19924;-52
2023/08/10 08:07:17;;;;;;;;;;;;;;;;;;6294329;28;19973;-53
2023/08/10 08:10:18;;;;;;;;;;;;;;;;;;6297682;28;20394;-55
2023/08/10 08:13:18;;;;;;;;;;;;;;;;;;6296789;28;19924;-52
2023/08/10 08:16:19;;;;;;;;;;;;;;;;;;6295657;28;19927;-55
2023/08/10 08:19:19;;;;;;;;;;;;;;;;;;6297483;28;19920;-54
2023/08/10 08:22:20;;;;;;;;;;;;;;;;;;6296229;28;19935;-55
2023/08/10 08:25:20;;;;;;;;;;;;;;;;;;6293636;28;19983;-56
2023/08/10 08:28:21;;;;;;;;;;;;;;;;;;6296827;28;19924;-56
2023/08/10 08:31:22;;;;;;;;;;;;;;;;;;6298883;28;19924;-52
2023/08/10 08:34:23;;;;;;;;;;;;;;;;;;6291840;28;19947;-52
2023/08/10 08:37:23;;;;;;;;;;;;;;;;;;6297518;28;20001;-55
2023/08/10 08:40:25;;;;;;;;;;;;;;;;;;6298451;28;20015;-55
2023/08/10 08:43:26;;;;;;;;;;;;;;;;;;6296221;28;20363;-53
2023/08/10 08:46:28;;;;;;;;;;;;;;;;;;6297072;28;20388;-54
2023/08/10 08:49:29;;;;;;;;;;;;;;;;;;6297050;28;19943;-54
2023/08/10 08:52:30;;;;;;;;;;;;;;;;;;6297080;28;19924;-52
2023/08/10 08:55:31;;;;;;;;;;;;;;;;;;6293606;28;20338;-55
2023/08/10 08:58:31;;;;;;;;;;;;;;;;;;6295182;28;19966;-51
2023/08/10 09:01:32;;;;;;;;;;;;;;;;;;6296400;28;19934;-55
2023/08/10 09:04:32;;;;;;;;;;;;;;;;;;6295278;28;19920;-51
2023/08/10 09:07:33;;;;;;;;;;;;;;;;;;6294825;28;20383;-53
2023/08/10 09:10:34;;;;;;;;;;;;;;;;;;6299062;28;20370;-54
2023/08/10 09:13:34;;;;;;;;;;;;;;;;;;6294330;28;19923;-55
2023/08/10 09:16:38;;;;;;;;;;;;;;;;;;6295363;28;19931;-51
2023/08/10 09:19:39;;;;;;;;;;;;;;;;;;6297473;28;19920;-53
2023/08/10 09:22:39;;;;;;;;;;;;;;;;;;6296737;28;19931;-55
2023/08/10 09:25:40;;;;;;;;;;;;;;;;;;6300208;28;19930;-52
2023/08/10 09:28:41;;;;;;;;;;;;;;;;;;6295069;28;19925;-60
2023/08/10 09:31:43;;;;;;;;;;;;;;;;;;6295048;28;19924;-55
2023/08/10 09:34:45;;;;;;;;;;;;;;;;;;6296640;28;19934;-53
2023/08/10 09:37:46;;;;;;;;;;;;;;;;;;6293925;28;19924;-53
2023/08/10 09:40:47;;;;;;;;;;;;;;;;;;6299262;28;19950;-52
2023/08/10 09:43:48;;;;;;;;;;;;;;;;;;6298293;28;19924;-60
2023/08/10 09:46:54;;;;;;;;;;;;;;;;;;6301859;28;20290;-60
2023/08/10 09:49:55;;;;;;;;;;;;;;;;;;6300547;28;20112;-50
2023/08/10 09:52:56;;;;;;;;;;;;;;;;;;6298433;28;19923;-55
2023/08/10 09:55:57;;;;;;;;;;;;;;;;;;6293362;28;20174;-52
2023/08/10 09:58:57;;;;;;;;;;;;;;;;;;6306644;28;20303;-52
2023/08/10 10:01:58;;;;;;;;;;;;;;;;;;6308334;28;20056;-56
2023/08/10 10:04:59;;;;;;;;;;;;;;;;;;6296556;28;20367;-55
2023/08/10 10:08:00;;;;;;;;;;;;;;;;;;6292694;28;19923;-54
2023/08/10 10:11:03;;;;;;;;;;;;;;;;;;6294403;28;20389;-54
2023/08/10 10:14:04;;;;;;;;;;;;;;;;;;6296659;28;20383;-53
2023/08/10 10:17:05;;;;;;;;;;;;;;;;;;6293458;28;19927;-55
2023/08/10 10:20:11;;;;;;;;;;;;;;;;;;6291951;28;19920;-56
2023/08/10 10:23:18;;;;;;;;;;;;;;;;;;6294393;28;19966;-55
2023/08/10 10:26:19;;;;;;;;;;;;;;;;;;6293374;28;19924;-54
2023/08/10 10:29:21;;;;;;;;;;;;;;;;;;6294698;28;19928;-54
2023/08/10 10:32:22;;;;;;;;;;;;;;;;;;6294811;28;20467;-53
2023/08/10 10:35:28;;;;;;;;;;;;;;;;;;6296024;28;19925;-54
2023/08/10 10:38:29;;;;;;;;;;;;;;;;;;6279134;28;20006;-54
2023/08/10 10:41:31;;;;;;;;;;;;;;;;;;6297541;28;19920;-60
2023/08/10 10:44:50;;;;;;;;;;;;;;;;;;6295746;28;20025;-56
2023/08/10 10:47:51;;;;;;;;;;;;;;;;;;6293662;28;19978;-52
2023/08/10 10:50:52;;;;;;;;;;;;;;;;;;6295201;28;19931;-56
2023/08/10 10:53:53;;;;;;;;;;;;;;;;;;6294089;28;19920;-55
2023/08/10 10:56:54;;;;;;;;;;;;;;;;;;6293232;28;20582;-51
2023/08/10 10:59:55;;;;;;;;;;;;;;;;;;6297050;28;19932;-53
2023/08/10 11:02:56;;;;;;;;;;;;;;;;;;6293815;28;19924;-50
2023/08/10 11:05:56;;;;;;;;;;;;;;;;;;6292269;28;20614;-55
2023/08/10 11:08:57;;;;;;;;;;;;;;;;;;6292316;28;21030;-59
2023/08/10 11:11:58;;;;;;;;;;;;;;;;;;6294092;28;19928;-60
2023/08/10 11:14:58;;;;;;;;;;;;;;;;;;6303374;28;19924;-60
2023/08/10 11:17:59;;;;;;;;;;;;;;;;;;6292568;28;19931;-51
2023/08/10 11:20:59;;;;;;;;;;;;;;;;;;6288969;28;19934;-58
2023/08/10 11:24:00;;;;;;;;;;;;;;;;;;6301010;28;19924;-59
2023/08/10 11:27:00;;;;;;;;;;;;;;;;;;6301259;28;19923;-60
2023/08/10 11:30:01;;;;;;;;;;;;;;;;;;6300160;28;21882;-60
2023/08/10 11:33:02;;;;;;;;;;;;;;;;;;6295591;28;19990;-59
2023/08/10 11:36:03;;;;;;;;;;;;;;;;;;6291907;28;20363;-59
2023/08/10 11:39:05;;;;;;;;;;;;;;;;;;6291543;28;19930;-59
2023/08/10 11:42:06;;;;;;;;;;;;;;;;;;6289819;28;19997;-60
2023/08/10 11:45:08;;;;;;;;;;;;;;;;;;6288974;28;19924;-59
2023/08/10 11:48:11;;;;;;;;;;;;;;;;;;6292942;28;19935;-60
2023/08/10 11:51:12;;;;;;;;;;;;;;;;;;6296057;28;20031;-60
2023/08/10 11:54:12;;;;;;;;;;;;;;;;;;6303118;28;19924;-57
2023/08/10 11:57:13;;;;;;;;;;;;;;;;;;6298389;28;19929;-59
2023/08/10 12:00:18;;;;;;;;;;;;;;;;;;6303309;28;19924;-56
2023/08/10 12:03:21;;;;;;;;;;;;;;;;;;6300222;28;19934;-59
2023/08/10 12:06:22;;;;;;;;;;;;;;;;;;6297216;28;19931;-58
2023/08/10 12:09:25;;;;;;;;;;;;;;;;;;6301067;28;19932;-60
2023/08/10 12:12:25;;;;;;;;;;;;;;;;;;6301532;28;20347;-59
2023/08/10 12:15:26;;;;;;;;;;;;;;;;;;6304076;28;19920;-57
2023/08/10 12:18:27;;;;;;;;;;;;;;;;;;6290772;28;19989;-59
2023/08/10 12:21:27;;;;;;;;;;;;;;;;;;6298484;28;19935;-58
2023/08/10 12:24:28;;;;;;;;;;;;;;;;;;6297852;28;19923;-58
2023/08/10 12:27:29;;;;;;;;;;;;;;;;;;6297961;28;19928;-59
2023/08/10 12:30:29;;;;;;;;;;;;;;;;;;6298346;28;20609;-59
2023/08/10 12:33:30;;;;;;;;;;;;;;;;;;6304956;28;19920;-59
2023/08/10 12:36:31;;;;;;;;;;;;;;;;;;6304477;28;20321;-58
2023/08/10 12:39:31;;;;;;;;;;;;;;;;;;6293088;28;19927;-60
2023/08/10 12:42:32;;;;;;;;;;;;;;;;;;6304734;28;19927;-56
2023/08/10 12:45:33;;;;;;;;;;;;;;;;;;6306488;28;19930;-58
2023/08/10 12:48:33;;;;;;;;;;;;;;;;;;6309920;28;19927;-59
2023/08/10 12:51:34;;;;;;;;;;;;;;;;;;6305799;28;20405;-59
2023/08/10 12:54:35;;;;;;;;;;;;;;;;;;6308884;28;19928;-58
2023/08/10 12:57:36;;;;;;;;;;;;;;;;;;6305506;28;19935;-56
2023/08/10 13:00:36;;;;;;;;;;;;;;;;;;6306449;28;19924;-55
2023/08/10 13:03:37;;;;;;;;;;;;;;;;;;6305461;28;19935;-59
2023/08/10 13:06:37;;;;;;;;;;;;;;;;;;6305992;28;19939;-57
2023/08/10 13:09:38;;;;;;;;;;;;;;;;;;6303844;28;19935;-59
2023/08/10 13:12:38;;;;;;;;;;;;;;;;;;6308667;28;20440;-58
2023/08/10 13:15:39;;;;;;;;;;;;;;;;;;6307855;28;19927;-57
2023/08/10 13:18:39;;;;;;;;;;;;;;;;;;6303679;28;19926;-58
2023/08/10 13:21:40;;;;;;;;;;;;;;;;;;6306476;28;19927;-60
2023/08/10 13:24:40;;;;;;;;;;;;;;;;;;6302882;28;19930;-57
2023/08/10 13:27:41;;;;;;;;;;;;;;;;;;6305235;28;19932;-60
2023/08/10 13:30:42;;;;;;;;;;;;;;;;;;6305003;28;19927;-56
2023/08/10 13:33:42;;;;;;;;;;;;;;;;;;6300292;28;19931;-56
2023/08/10 13:36:43;;;;;;;;;;;;;;;;;;6307950;28;19927;-59
2023/08/10 13:39:43;;;;;;;;;;;;;;;;;;6306406;28;19928;-59
2023/08/10 13:42:44;;;;;;;;;;;;;;;;;;6303727;28;20858;-57
2023/08/10 13:45:44;;;;;;;;;;;;;;;;;;6285283;28;19928;-59
2023/08/10 13:48:45;;;;;;;;;;;;;;;;;;6302246;28;20545;-60
2023/08/10 13:51:45;;;;;;;;;;;;;;;;;;6305679;28;19935;-60
2023/08/10 13:54:46;;;;;;;;;;;;;;;;;;6304087;28;19984;-57
2023/08/10 13:57:47;;;;;;;;;;;;;;;;;;6302294;28;20531;-60
2023/08/10 14:00:47;;;;;;;;;;;;;;;;;;6308733;28;19935;-57
2023/08/10 14:03:47;;;;;;;;;;;;;;;;;;6302837;28;19943;-58
2023/08/10 14:06:48;;;;;;;;;;;;;;;;;;6304646;28;19924;-59
2023/08/10 14:09:49;;;;;;;;;;;;;;;;;;6306556;28;19931;-60
2023/08/10 14:12:50;;;;;;;;;;;;;;;;;;6310072;28;19927;-60
2023/08/10 14:15:51;;;;;;;;;;;;;;;;;;6306520;28;19970;-60
2023/08/10 14:18:51;;;;;;;;;;;;;;;;;;6305744;28;19930;-60
2023/08/10 14:21:52;;;;;;;;;;;;;;;;;;6305711;28;19970;-58
2023/08/10 14:24:52;;;;;;;;;;;;;;;;;;6305427;28;19928;-61
2023/08/10 14:27:54;;;;;;;;;;;;;;;;;;6306464;28;19935;-59
2023/08/10 14:30:55;;;;;;;;;;;;;;;;;;6308155;28;19927;-57
2023/08/10 14:33:56;;;;;;;;;;;;;;;;;;6300831;28;19927;-60
2023/08/10 14:36:57;;;;;;;;;;;;;;;;;;6301583;28;20323;-60
2023/08/10 14:39:59;;;;;;;;;;;;;;;;;;6285610;28;19935;-57
2023/08/10 14:42:59;;;;;;;;;;;;;;;;;;6305994;28;20476;-60
2023/08/10 14:46:00;;;;;;;;;;;;;;;;;;6304192;28;20038;-58
2023/08/10 14:49:03;;;;;;;;;;;;;;;;;;6303634;28;19996;-53
2023/08/10 14:52:04;;;;;;;;;;;;;;;;;;6315911;28;19927;-55
2023/08/10 14:55:04;;;;;;;;;;;;;;;;;;6312075;28;19958;-57
2023/08/10 14:58:05;;;;;;;;;;;;;;;;;;6313126;28;20401;-55
2023/08/10 15:01:05;;;;;;;;;;;;;;;;;;6317079;28;20660;-56
2023/08/10 15:04:08;;;;;;;;;;;;;;;;;;6316871;28;20653;-55
2023/08/10 15:07:09;;;;;;;;;;;;;;;;;;6311508;28;19919;-54
2023/08/10 15:10:11;;;;;;;;;;;;;;;;;;6304457;28;20259;-60
2023/08/10 15:13:12;;;;;;;;;;;;;;;;;;6312196;28;19924;-60
2023/08/10 15:16:14;;;;;;;;;;;;;;;;;;6309127;28;19928;-64
2023/08/10 15:19:14;;;;;;;;;;;;;;;;;;6313354;28;19928;-58
2023/08/10 15:22:15;;;;;;;;;;;;;;;;;;6305876;28;19927;-56
2023/08/10 15:25:16;;;;;;;;;;;;;;;;;;6307820;28;20355;-58
2023/08/10 15:28:17;;;;;;;;;;;;;;;;;;6312593;28;19950;-58
2023/08/10 15:31:24;;;;;;;;;;;;;;;;;;6315953;28;19928;-59
2023/08/10 15:34:24;;;;;;;;;;;;;;;;;;6308691;28;20783;-54
2023/08/10 15:37:27;;;;;;;;;;;;;;;;;;6312669;28;19924;-61
2023/08/10 15:40:29;;;;;;;;;;;;;;;;;;6312446;28;19928;-57
2023/08/10 15:43:30;;;;;;;;;;;;;;;;;;6317407;28;19924;-51
2023/08/10 15:46:30;;;;;;;;;;;;;;;;;;6315953;28;19970;-54
2023/08/10 15:49:36;;;;;;;;;;;;;;;;;;6315994;28;19931;-55
2023/08/10 15:52:37;;;;;;;;;;;;;;;;;;6313385;28;20549;-55
2023/08/10 15:55:37;;;;;;;;;;;;;;;;;;6316652;28;19978;-54
2023/08/10 15:58:38;;;;;;;;;;;;;;;;;;6319119;28;20006;-55
2023/08/10 16:01:39;;;;;;;;;;;;;;;;;;6314687;28;19924;-54
2023/08/10 16:04:40;;;;;;;;;;;;;;;;;;6301424;28;20354;-53
2023/08/10 16:07:41;;;;;;;;;;;;;;;;;;6294237;28;19977;-53
2023/08/10 16:10:42;;;;;;;;;;;;;;;;;;6306189;28;19931;-57
2023/08/10 16:13:42;;;;;;;;;;;;;;;;;;6302530;28;19925;-55
2023/08/10 16:16:43;;;;;;;;;;;;;;;;;;6319428;28;19920;-56
2023/08/10 16:19:43;;;;;;;;;;;;;;;;;;6310683;28;19924;-49
2023/08/10 16:22:44;;;;;;;;;;;;;;;;;;6318138;28;19923;-63
2023/08/10 16:25:50;;;;;;;;;;;;;;;;;;6320634;28;19924;-51
2023/08/10 16:28:51;;;;;;;;;;;;;;;;;;6320796;28;20316;-52
2023/08/10 16:31:51;;;;;;;;;;;;;;;;;;6322733;28;19980;-54
2023/08/10 16:34:53;;;;;;;;;;;;;;;;;;6317751;28;20469;-50
2023/08/10 16:37:53;;;;;;;;;;;;;;;;;;6316018;28;19935;-53
2023/08/10 16:40:54;;;;;;;;;;;;;;;;;;6315506;28;19924;-53
2023/08/10 16:43:54;;;;;;;;;;;;;;;;;;6312591;28;20381;-55
2023/08/10 16:46:55;;;;;;;;;;;;;;;;;;6315517;28;20022;-57
2023/08/10 16:49:55;;;;;;;;;;;;;;;;;;6318309;28;19930;-51
2023/08/10 16:52:57;;;;;;;;;;;;;;;;;;6314852;28;19931;-55
2023/08/10 16:55:58;;;;;;;;;;;;;;;;;;6316564;28;19972;-55
2023/08/10 16:58:59;;;;;;;;;;;;;;;;;;6316775;28;20050;-55
2023/08/10 17:01:59;;;;;;;;;;;;;;;;;;6321325;28;20269;-53
2023/08/10 17:05:00;;;;;;;;;;;;;;;;;;6314358;28;19920;-54
2023/08/10 17:08:00;;;;;;;;;;;;;;;;;;6312558;28;19919;-55
2023/08/10 17:11:01;;;;;;;;;;;;;;;;;;6315252;28;19958;-55
2023/08/10 17:14:01;;;;;;;;;;;;;;;;;;6315936;28;19974;-54
2023/08/10 17:17:02;;;;;;;;;;;;;;;;;;6322286;28;19924;-56
2023/08/10 17:20:02;;;;;;;;;;;;;;;;;;6320788;28;19935;-54
2023/08/10 17:23:04;;;;;;;;;;;;;;;;;;6317879;28;19934;-58
2023/08/10 17:26:04;;;;;;;;;;;;;;;;;;6321967;28;19928;-56
2023/08/10 17:29:05;;;;;;;;;;;;;;;;;;6314805;28;19936;-56
2023/08/10 17:32:06;;;;;;;;;;;;;;;;;;6319040;28;19939;-54
2023/08/10 17:35:07;;;;;;;;;;;;;;;;;;6316171;28;20719;-52
2023/08/10 17:38:08;;;;;;;;;;;;;;;;;;6322258;28;19928;-58
2023/08/10 17:41:08;;;;;;;;;;;;;;;;;;6316122;28;19924;-55
2023/08/10 17:44:09;;;;;;;;;;;;;;;;;;6316921;28;19927;-53
2023/08/10 17:47:09;;;;;;;;;;;;;;;;;;6317834;28;19950;-53
2023/08/10 17:50:10;;;;;;;;;;;;;;;;;;6315592;28;19935;-52
2023/08/10 17:53:10;;;;;;;;;;;;;;;;;;6313808;28;19947;-58
2023/08/10 17:56:11;;;;;;;;;;;;;;;;;;6314504;28;19931;-52
2023/08/10 17:59:11;;;;;;;;;;;;;;;;;;6313691;28;19932;-52
2023/08/10 18:02:12;;;;;;;;;;;;;;;;;;6315953;28;19928;-53
2023/08/10 18:05:12;;;;;;;;;;;;;;;;;;6319542;28;20301;-54
2023/08/10 18:08:13;;;;;;;;;;;;;;;;;;6315319;28;19924;-51
2023/08/10 18:11:15;;;;;;;;;;;;;;;;;;6316888;28;19920;-56
2023/08/10 18:14:15;;;;;;;;;;;;;;;;;;6313592;28;19945;-57
2023/08/10 18:17:17;;;;;;;;;;;;;;;;;;6314543;28;19920;-59
2023/08/10 18:20:17;;;;;;;;;;;;;;;;;;6320520;28;19959;-56
2023/08/10 18:23:21;;;;;;;;;;;;;;;;;;6310269;28;20295;-56
2023/08/10 18:26:21;;;;;;;;;;;;;;;;;;6311206;28;20441;-54
2023/08/10 18:29:22;;;;;;;;;;;;;;;;;;6318010;28;19928;-55
2023/08/10 18:32:22;;;;;;;;;;;;;;;;;;6315630;28;20322;-56
2023/08/10 18:35:23;;;;;;;;;;;;;;;;;;6319639;28;20335;-57
2023/08/10 18:38:23;;;;;;;;;;;;;;;;;;6317338;28;19920;-59
2023/08/10 18:41:24;;;;;;;;;;;;;;;;;;6313660;28;19945;-57
2023/08/10 18:44:25;;;;;;;;;;;;;;;;;;6309920;28;19928;-55
2023/08/10 18:47:25;;;;;;;;;;;;;;;;;;6316195;28;19947;-58
2023/08/10 18:50:26;;;;;;;;;;;;;;;;;;6299350;28;20507;-58
2023/08/10 18:53:27;;;;;;;;;;;;;;;;;;6306095;28;20014;-59
2023/08/10 18:56:27;;;;;;;;;;;;;;;;;;6299743;28;20298;-59
2023/08/10 18:59:28;;;;;;;;;;;;;;;;;;6302056;28;19928;-58
2023/08/10 19:02:28;;;;;;;;;;;;;;;;;;6300735;28;19928;-59
2023/08/10 19:05:30;;;;;;;;;;;;;;;;;;6301773;28;19928;-59
2023/08/10 19:08:30;;;;;;;;;;;;;;;;;;6300219;28;19935;-60
2023/08/10 19:11:31;;;;;;;;;;;;;;;;;;6302107;28;19924;-57
2023/08/10 19:14:31;;;;;;;;;;;;;;;;;;6303288;28;19997;-59
2023/08/10 19:17:32;;;;;;;;;;;;;;;;;;6302242;28;19935;-59
2023/08/10 19:20:35;;;;;;;;;;;;;;;;;;6305076;28;19921;-58
2023/08/10 19:23:35;;;;;;;;;;;;;;;;;;6305683;28;20477;-55
2023/08/10 19:26:36;;;;;;;;;;;;;;;;;;6305593;28;19943;-60
2023/08/10 19:29:37;;;;;;;;;;;;;;;;;;6304097;28;19924;-57
2023/08/10 19:32:38;;;;;;;;;;;;;;;;;;6298234;28;19927;-58
2023/08/10 19:35:38;;;;;;;;;;;;;;;;;;6297553;28;19982;-60
2023/08/10 19:38:39;;;;;;;;;;;;;;;;;;6303608;28;19928;-57
2023/08/10 19:41:40;;;;;;;;;;;;;;;;;;6305686;28;20702;-58
2023/08/10 19:44:40;;;;;;;;;;;;;;;;;;6306689;28;19931;-58
2023/08/10 19:47:41;;;;;;;;;;;;;;;;;;6303005;28;20855;-56
2023/08/10 19:50:41;;;;;;;;;;;;;;;;;;6305064;28;19928;-59
2023/08/10 19:53:42;;;;;;;;;;;;;;;;;;6311522;28;20402;-57
2023/08/10 19:56:43;;;;;;;;;;;;;;;;;;6311641;28;20371;-59
2023/08/10 19:59:43;;;;;;;;;;;;;;;;;;6310177;28;19924;-59
2023/08/10 20:02:44;;;;;;;;;;;;;;;;;;6309059;28;20382;-59
2023/08/10 20:05:45;;;;;;;;;;;;;;;;;;6312020;28;20336;-58
2023/08/10 20:08:45;;;;;;;;;;;;;;;;;;6314116;28;19920;-59
2023/08/10 20:11:46;;;;;;;;;;;;;;;;;;6316061;28;19924;-58
2023/08/10 20:14:47;;;;;;;;;;;;;;;;;;6313651;28;20356;-57
2023/08/10 20:17:48;;;;;;;;;;;;;;;;;;6312929;28;19928;-56
2023/08/10 20:20:49;;;;;;;;;;;;;;;;;;6318291;28;19920;-56
2023/08/10 20:23:50;;;;;;;;;;;;;;;;;;6314757;28;20741;-60
2023/08/10 20:26:50;;;;;;;;;;;;;;;;;;6314061;28;19935;-59
2023/08/10 20:29:51;;;;;;;;;;;;;;;;;;6317109;28;19934;-57
2023/08/10 20:32:51;;;;;;;;;;;;;;;;;;6318726;28;19927;-57
2023/08/10 20:35:52;;;;;;;;;;;;;;;;;;6305449;28;19936;-56